Time,TemperatureF,DewpointF,PressureIn,WindDirection,WindDirectionDegrees,WindSpeedMPH,WindSpeedGustMPH,Humidity,HourlyPrecipIn,Conditions,Clouds,dailyrainin,SoftwareType,DateUTC
2013-05-12 00:13:00,59.7,59.1,29.61,NNW,337,0.0,-999.0,98,-99.99,,,0.01,Acu-Link.com,2013-05-12 04:13:00,
2013-05-12 00:28:00,59.7,59.1,29.60,North,0,0.0,-999.0,98,-99.99,,,0.01,Acu-Link.com,2013-05-12 04:28:00,
2013-05-12 00:44:00,59.5,58.9,29.61,NNE,22,0.0,-999.0,98,-99.99,,,0.01,Acu-Link.com,2013-05-12 04:44:00,
2013-05-12 00:59:00,59.4,58.8,29.60,North,0,0.0,-999.0,98,-99.99,,,0.01,Acu-Link.com,2013-05-12 04:59:00,
2013-05-12 01:14:00,59.2,58.6,29.59,SSE,157,0.0,-999.0,98,-99.99,,,0.01,Acu-Link.com,2013-05-12 05:14:00,
2013-05-12 01:30:00,59.0,58.4,29.59,NNW,337,0.0,-999.0,98,-99.99,,,0.01,Acu-Link.com,2013-05-12 05:30:00,
2013-05-12 01:45:00,59.0,58.4,29.59,NNW,337,0.0,-999.0,98,-99.99,,,0.01,Acu-Link.com,2013-05-12 05:45:00,
2013-05-12 02:00:00,58.8,58.2,29.58,NNW,337,0.0,-999.0,98,-99.99,,,0.01,Acu-Link.com,2013-05-12 06:00:00,
2013-05-12 02:15:00,58.3,57.7,29.58,SSW,202,0.0,-999.0,98,-99.99,,,0.01,Acu-Link.com,2013-05-12 06:15:00,
2013-05-12 02:30:00,58.1,57.5,29.57,NNW,337,0.0,-999.0,98,-99.99,,,0.01,Acu-Link.com,2013-05-12 06:30:00,
2013-05-12 02:46:00,58.1,57.5,29.57,NW,315,0.0,-999.0,98,-99.99,,,0.01,Acu-Link.com,2013-05-12 06:46:00,
2013-05-12 03:01:00,57.7,57.1,29.56,North,0,0.0,-999.0,98,-99.99,,,0.01,Acu-Link.com,2013-05-12 07:01:00,
2013-05-12 03:16:00,57.7,57.1,29.56,NE,45,0.0,-999.0,98,-99.99,,,0.01,Acu-Link.com,2013-05-12 07:16:00,
2013-05-12 03:32:00,57.6,57.0,29.56,NNW,337,0.0,-999.0,98,-99.99,,,0.01,Acu-Link.com,2013-05-12 07:32:00,
2013-05-12 03:47:00,57.4,56.8,29.57,NNE,22,0.0,-999.0,98,-99.99,,,0.01,Acu-Link.com,2013-05-12 07:47:00,
2013-05-12 04:02:00,57.4,56.8,29.57,North,0,0.0,-999.0,98,-99.99,,,0.01,Acu-Link.com,2013-05-12 08:02:00,
2013-05-12 04:17:00,57.4,56.8,29.57,NNE,22,0.0,-999.0,98,-99.99,,,0.01,Acu-Link.com,2013-05-12 08:17:00,
2013-05-12 04:33:00,56.7,56.1,29.57,NNW,337,0.0,-999.0,98,-99.99,,,0.01,Acu-Link.com,2013-05-12 08:33:00,
2013-05-12 04:48:00,56.5,55.9,29.56,NNE,22,0.0,-999.0,98,-99.99,,,0.01,Acu-Link.com,2013-05-12 08:48:00,
2013-05-12 05:03:00,55.8,55.2,29.56,SW,225,0.0,-999.0,98,-99.99,,,0.01,Acu-Link.com,2013-05-12 09:03:00,
2013-05-12 05:18:00,55.4,54.8,29.57,NNW,337,0.0,-999.0,98,-99.99,,,0.01,Acu-Link.com,2013-05-12 09:18:00,
2013-05-12 05:33:00,55.4,54.8,29.57,NNW,337,0.0,-999.0,98,-99.99,,,0.01,Acu-Link.com,2013-05-12 09:33:00,
2013-05-12 05:48:00,55.4,54.8,29.56,NNW,337,0.0,-999.0,98,-99.99,,,0.01,Acu-Link.com,2013-05-12 09:48:00,
2013-05-12 06:04:00,55.2,54.6,29.56,NW,315,0.0,-999.0,98,-99.99,,,0.01,Acu-Link.com,2013-05-12 10:04:00,
2013-05-12 06:19:00,55.2,54.6,29.56,NW,315,0.0,-999.0,98,-99.99,,,0.01,Acu-Link.com,2013-05-12 10:19:00,
2013-05-12 06:34:00,55.2,54.6,29.56,SSW,202,0.0,-999.0,98,-99.99,,,0.01,Acu-Link.com,2013-05-12 10:34:00,
2013-05-12 06:49:00,55.2,54.6,29.56,NNW,337,0.0,-999.0,98,-99.99,,,0.01,Acu-Link.com,2013-05-12 10:49:00,
2013-05-12 07:05:00,55.2,54.6,29.57,SE,135,0.0,-999.0,98,-99.99,,,0.01,Acu-Link.com,2013-05-12 11:05:00,
2013-05-12 07:20:00,55.2,54.6,29.57,NE,45,0.0,-999.0,98,-99.99,,,0.01,Acu-Link.com,2013-05-12 11:20:00,
2013-05-12 07:35:00,55.6,55.0,29.56,North,0,0.0,-999.0,98,-99.99,,,0.01,Acu-Link.com,2013-05-12 11:35:00,
2013-05-12 07:50:00,55.8,55.2,29.56,NNE,22,0.0,-999.0,98,-99.99,,,0.01,Acu-Link.com,2013-05-12 11:50:00,
2013-05-12 08:06:00,56.5,55.9,29.55,NW,315,0.0,-999.0,98,-99.99,,,0.01,Acu-Link.com,2013-05-12 12:06:00,
2013-05-12 08:21:00,57.0,56.4,29.54,ESE,112,0.0,-999.0,98,-99.99,,,0.01,Acu-Link.com,2013-05-12 12:21:00,
2013-05-12 08:36:00,57.2,56.6,29.53,SSE,157,0.0,-999.0,98,-99.99,,,0.01,Acu-Link.com,2013-05-12 12:36:00,
2013-05-12 08:51:00,57.6,57.0,29.55,SW,225,0.0,-999.0,98,-99.99,,,0.01,Acu-Link.com,2013-05-12 12:51:00,
2013-05-12 09:06:00,57.9,57.3,29.53,NE,45,0.0,-999.0,98,-99.99,,,0.01,Acu-Link.com,2013-05-12 13:06:00,
2013-05-12 09:22:00,57.9,57.3,29.53,South,180,0.0,-999.0,98,-99.99,,,0.01,Acu-Link.com,2013-05-12 13:22:00,
2013-05-12 09:37:00,58.5,57.9,29.51,South,180,0.0,-999.0,98,-99.99,,,0.01,Acu-Link.com,2013-05-12 13:37:00,
2013-05-12 09:52:00,59.2,58.6,29.51,SSW,202,0.0,-999.0,98,-99.99,,,0.01,Acu-Link.com,2013-05-12 13:52:00,
2013-05-12 10:07:00,60.1,59.5,29.51,NNE,22,0.0,-999.0,98,-99.99,,,0.01,Acu-Link.com,2013-05-12 14:07:00,
2013-05-12 10:23:00,61.2,60.6,29.51,SW,225,0.0,-999.0,98,-99.99,,,0.01,Acu-Link.com,2013-05-12 14:23:00,
2013-05-12 10:38:00,61.2,60.6,29.51,North,0,0.0,-999.0,98,-99.99,,,0.01,Acu-Link.com,2013-05-12 14:38:00,
2013-05-12 10:53:00,61.0,60.4,29.51,NW,315,0.0,-999.0,98,-99.99,,,0.01,Acu-Link.com,2013-05-12 14:53:00,
2013-05-12 11:08:00,59.2,57.5,29.51,NW,315,0.0,-999.0,94,-99.99,,,0.01,Acu-Link.com,2013-05-12 15:08:00,
2013-05-12 11:24:00,59.2,57.2,29.50,NNW,337,1.1,-999.0,93,-99.99,,,0.01,Acu-Link.com,2013-05-12 15:24:00,
2013-05-12 11:39:00,59.0,56.1,29.51,WNW,292,0.0,-999.0,90,-99.99,,,0.01,Acu-Link.com,2013-05-12 15:39:00,
2013-05-12 11:54:00,59.9,57.0,29.49,WNW,292,0.0,-999.0,90,-99.99,,,0.01,Acu-Link.com,2013-05-12 15:54:00,
2013-05-12 12:09:00,59.9,56.0,29.49,East,90,0.0,-999.0,87,-99.99,,,0.01,Acu-Link.com,2013-05-12 16:09:00,
2013-05-12 12:24:00,60.1,54.9,29.49,SSE,157,0.0,-999.0,83,-99.99,,,0.01,Acu-Link.com,2013-05-12 16:24:00,
2013-05-12 12:40:00,60.6,53.7,29.48,NNE,22,0.0,-999.0,78,-99.99,,,0.01,Acu-Link.com,2013-05-12 16:40:00,
2013-05-12 12:55:00,61.5,54.6,29.48,ENE,67,0.0,-999.0,78,-99.99,,,0.01,Acu-Link.com,2013-05-12 16:55:00,
2013-05-12 13:10:00,62.2,53.8,29.48,NNE,22,2.7,-999.0,74,-99.99,,,0.01,Acu-Link.com,2013-05-12 17:10:00,
2013-05-12 13:25:00,66.2,55.3,29.48,SSW,202,0.0,-999.0,68,-99.99,,,0.01,Acu-Link.com,2013-05-12 17:25:00,
2013-05-12 13:41:00,64.6,53.0,29.47,WNW,292,1.7,-999.0,66,-99.99,,,0.01,Acu-Link.com,2013-05-12 17:41:00,
2013-05-12 13:56:00,65.8,52.0,29.48,South,180,2.2,-999.0,61,-99.99,,,0.01,Acu-Link.com,2013-05-12 17:56:00,
2013-05-12 14:11:00,66.6,50.9,29.47,West,270,1.1,-999.0,57,-99.99,,,0.01,Acu-Link.com,2013-05-12 18:11:00,
2013-05-12 14:26:00,67.5,53.1,29.47,NNW,337,1.7,-999.0,60,-99.99,,,0.01,Acu-Link.com,2013-05-12 18:26:00,
2013-05-12 14:41:00,69.1,51.2,29.47,ESE,112,2.2,-999.0,53,-99.99,,,0.01,Acu-Link.com,2013-05-12 18:41:00,
2013-05-12 14:57:00,66.4,49.2,29.47,NNE,22,1.1,-999.0,54,-99.99,,,0.01,Acu-Link.com,2013-05-12 18:57:00,
2013-05-12 15:12:00,65.8,47.7,29.47,NNE,22,1.7,-999.0,52,-99.99,,,0.01,Acu-Link.com,2013-05-12 19:12:00,
2013-05-12 15:27:00,64.9,48.8,29.48,SSW,202,1.7,-999.0,56,-99.99,,,0.01,Acu-Link.com,2013-05-12 19:27:00,
2013-05-12 15:42:00,64.4,49.3,29.48,NE,45,0.0,-999.0,58,-99.99,,,0.01,Acu-Link.com,2013-05-12 19:42:00,
2013-05-12 15:57:00,64.6,51.7,29.47,East,90,0.0,-999.0,63,-99.99,,,0.01,Acu-Link.com,2013-05-12 19:57:00,
2013-05-12 16:13:00,64.9,47.4,29.48,ESE,112,2.2,-999.0,53,-99.99,,,0.01,Acu-Link.com,2013-05-12 20:13:00,
2013-05-12 16:28:00,64.0,48.0,29.49,NW,315,2.2,-999.0,56,-99.99,,,0.01,Acu-Link.com,2013-05-12 20:28:00,
2013-05-12 16:43:00,63.7,50.4,29.48,East,90,0.0,-999.0,62,-99.99,,,0.01,Acu-Link.com,2013-05-12 20:43:00,
2013-05-12 16:58:00,62.8,48.3,29.49,North,0,1.7,-999.0,59,-99.99,,,0.01,Acu-Link.com,2013-05-12 20:58:00,
2013-05-12 17:13:00,60.4,48.6,29.50,NNW,337,3.2,-999.0,65,-99.99,,,0.01,Acu-Link.com,2013-05-12 21:13:00,
2013-05-12 17:29:00,58.8,49.0,29.51,NNW,337,2.2,-999.0,70,-99.99,,,0.01,Acu-Link.com,2013-05-12 21:29:00,
2013-05-12 17:44:00,57.4,48.8,29.52,NNE,22,2.7,-999.0,73,-99.99,,,0.01,Acu-Link.com,2013-05-12 21:44:00,
2013-05-12 17:59:00,56.5,47.9,29.54,NW,315,0.0,-999.0,73,-99.99,,,0.01,Acu-Link.com,2013-05-12 21:59:00,
2013-05-12 18:14:00,55.8,46.9,29.54,WNW,292,1.1,-999.0,72,-99.99,,,0.01,Acu-Link.com,2013-05-12 22:14:00,
2013-05-12 18:29:00,55.6,45.6,29.55,WNW,292,1.7,-999.0,69,-99.99,,,0.01,Acu-Link.com,2013-05-12 22:29:00,
2013-05-12 18:45:00,54.9,44.5,29.55,WSW,247,2.2,-999.0,68,-99.99,,,0.01,Acu-Link.com,2013-05-12 22:45:00,
2013-05-12 19:00:00,54.3,43.6,29.56,WNW,292,1.7,-999.0,67,-99.99,,,0.01,Acu-Link.com,2013-05-12 23:00:00,
2013-05-12 19:15:00,53.1,42.4,29.58,NE,45,1.7,-999.0,67,-99.99,,,0.01,Acu-Link.com,2013-05-12 23:15:00,
2013-05-12 19:30:00,52.2,41.2,29.58,NW,315,1.7,-999.0,66,-99.99,,,0.01,Acu-Link.com,2013-05-12 23:30:00,
2013-05-12 19:46:00,51.8,41.6,29.58,WNW,292,0.0,-999.0,68,-99.99,,,0.01,Acu-Link.com,2013-05-12 23:46:00,
2013-05-12 20:01:00,50.7,41.6,29.59,WNW,292,1.1,-999.0,71,-99.99,,,0.01,Acu-Link.com,2013-05-13 00:01:00,
2013-05-12 20:16:00,50.4,41.0,29.60,ENE,67,0.0,-999.0,70,-99.99,,,0.01,Acu-Link.com,2013-05-13 00:16:00,
2013-05-12 20:31:00,49.5,41.9,29.60,NNW,337,0.0,-999.0,75,-99.99,,,0.01,Acu-Link.com,2013-05-13 00:31:00,
2013-05-12 20:46:00,48.7,42.5,29.62,WNW,292,0.0,-999.0,79,-99.99,,,0.01,Acu-Link.com,2013-05-13 00:46:00,
2013-05-12 21:02:00,49.3,40.7,29.62,NW,315,1.7,-999.0,72,-99.99,,,0.01,Acu-Link.com,2013-05-13 01:02:00,
2013-05-12 21:17:00,49.3,41.4,29.62,North,0,1.7,-999.0,74,-99.99,,,0.01,Acu-Link.com,2013-05-13 01:17:00,
2013-05-12 21:32:00,49.1,39.7,29.63,NNW,337,1.1,-999.0,70,-99.99,,,0.01,Acu-Link.com,2013-05-13 01:32:00,
2013-05-12 21:47:00,48.4,39.8,29.64,WNW,292,3.2,-999.0,72,-99.99,,,0.01,Acu-Link.com,2013-05-13 01:47:00,
2013-05-12 22:02:00,48.4,36.8,29.64,NNW,337,2.7,-999.0,64,-99.99,,,0.01,Acu-Link.com,2013-05-13 02:02:00,
2013-05-12 22:18:00,48.0,36.4,29.64,NE,45,1.7,-999.0,64,-99.99,,,0.01,Acu-Link.com,2013-05-13 02:18:00,
2013-05-12 22:33:00,48.2,34.6,29.64,NNE,22,2.2,-999.0,59,-99.99,,,0.01,Acu-Link.com,2013-05-13 02:33:00,
2013-05-12 22:48:00,48.0,34.4,29.65,WNW,292,1.1,-999.0,59,-99.99,,,0.01,Acu-Link.com,2013-05-13 02:48:00,
2013-05-12 23:03:00,46.8,34.9,29.66,WNW,292,0.0,-999.0,63,-99.99,,,0.01,Acu-Link.com,2013-05-13 03:03:00,
2013-05-12 23:18:00,45.9,34.0,29.65,East,90,0.0,-999.0,63,-99.99,,,0.01,Acu-Link.com,2013-05-13 03:18:00,
2013-05-12 23:34:00,45.5,31.6,29.65,West,270,0.0,-999.0,58,-99.99,,,0.01,Acu-Link.com,2013-05-13 03:34:00,
2013-05-12 23:49:00,45.7,31.8,29.66,East,90,0.0,-999.0,58,-99.99,,,0.01,Acu-Link.com,2013-05-13 03:49:00,